Time;durP1;ratioP1;P1;durP2;ratioP2;P2;SDS_P1;SDS_P2;PMS_P1;PMS_P2;Temp;Humidity;BMP_temperature;BMP_pressure;BME280_temperature;BME280_humidity;BME280_pressure;Samples;Min_cycle;Max_cycle;Signal;HPM_P1;HPM_P2
2023/03/25 00:00:15;;;;;;;;;;;9.20;99.90;;;;;;6190726;23;20376;-91
2023/03/25 00:02:43;;;;;;;;;;;9.20;99.90;;;;;;6199327;23;19896;-91
2023/03/25 00:05:09;;;;;;;;;;;9.10;99.90;;;;;;6214392;23;19931;-91
2023/03/25 00:07:42;;;;;;;;;;;9.20;99.90;;;;;;6230877;23;19908;-93
2023/03/25 00:10:08;;;;;;;;;;;9.00;99.90;;;;;;6189563;23;20317;-91
2023/03/25 00:12:34;;;;;;;;;;;9.00;99.90;;;;;;6190722;23;19946;-93
2023/03/25 00:14:59;;;;;;;;;;;9.00;99.90;;;;;;6189412;23;20223;-92
2023/03/25 00:17:27;;;;;;;;;;;9.00;99.90;;;;;;6215245;23;19900;-91
2023/03/25 00:19:54;;;;;;;;;;;9.30;99.90;;;;;;6189403;23;20272;-91
2023/03/25 00:22:21;;;;;;;;;;;8.80;99.90;;;;;;6215187;23;19904;-92
2023/03/25 00:24:47;;;;;;;;;;;8.80;99.90;;;;;;6189378;23;20245;-92
2023/03/25 00:27:13;;;;;;;;;;;8.60;99.90;;;;;;6188907;23;20344;-91
2023/03/25 00:29:40;;;;;;;;;;;8.70;99.90;;;;;;6215315;23;19899;-91
2023/03/25 00:32:05;;;;;;;;;;;8.70;99.90;;;;;;6189055;23;19904;-92
2023/03/25 00:34:33;;;;;;;;;;;9.70;99.90;;;;;;6216010;23;20394;-92
2023/03/25 00:37:05;;;;;;;;;;;9.50;99.90;;;;;;6190522;23;19907;-92
2023/03/25 00:39:30;;;;;;;;;;;8.60;99.90;;;;;;6189676;23;20387;-92
2023/03/25 00:41:56;;;;;;;;;;;8.60;99.90;;;;;;6188957;23;19904;-92
2023/03/25 00:44:21;;;;;;;;;;;8.90;99.90;;;;;;6190469;23;19911;-92
2023/03/25 00:46:47;;;;;;;;;;;9.50;99.90;;;;;;6189092;23;19971;-92
2023/03/25 00:49:12;;;;;;;;;;;8.60;99.90;;;;;;6189244;23;19994;-92
2023/03/25 00:51:38;;;;;;;;;;;8.60;99.90;;;;;;6188601;23;20019;-93
2023/03/25 00:54:04;;;;;;;;;;;8.60;99.90;;;;;;6190125;23;19906;-92
2023/03/25 00:56:29;;;;;;;;;;;8.60;99.90;;;;;;6190057;23;19969;-90
2023/03/25 00:58:55;;;;;;;;;;;8.60;99.90;;;;;;6189298;23;20336;-91
2023/03/25 01:01:22;;;;;;;;;;;8.60;99.90;;;;;;6188854;23;19900;-92
2023/03/25 01:03:48;;;;;;;;;;;8.50;99.90;;;;;;6188331;23;19907;-93
2023/03/25 01:06:15;;;;;;;;;;;9.00;99.90;;;;;;6189275;23;19903;-91
2023/03/25 01:08:41;;;;;;;;;;;8.50;99.90;;;;;;6188758;23;19900;-93
2023/03/25 01:11:16;;;;;;;;;;;8.80;99.90;;;;;;6214729;23;19904;-92
2023/03/25 01:13:41;;;;;;;;;;;8.50;99.90;;;;;;6189086;23;19933;-90
2023/03/25 01:16:07;;;;;;;;;;;8.40;99.90;;;;;;6215368;23;19900;-93
2023/03/25 01:18:37;;;;;;;;;;;8.50;99.90;;;;;;6189117;23;19904;-92
2023/03/25 01:21:06;;;;;;;;;;;8.40;99.90;;;;;;6216331;23;19915;-92
2023/03/25 01:23:32;;;;;;;;;;;8.40;99.90;;;;;;6189426;23;19908;-91
2023/03/25 01:25:57;;;;;;;;;;;9.30;99.90;;;;;;6188621;23;19914;-91
2023/03/25 01:28:23;;;;;;;;;;;8.30;99.90;;;;;;6188235;23;20183;-93
2023/03/25 01:30:49;;;;;;;;;;;8.30;99.90;;;;;;6188315;23;19907;-92
2023/03/25 01:33:14;;;;;;;;;;;9.50;99.90;;;;;;6189221;23;19900;-91
2023/03/25 01:35:40;;;;;;;;;;;8.30;99.90;;;;;;6214940;23;19907;-90
2023/03/25 01:38:06;;;;;;;;;;;9.40;99.90;;;;;;6188561;23;19907;-92
2023/03/25 01:40:32;;;;;;;;;;;8.30;99.90;;;;;;6189471;23;19900;-92
2023/03/25 01:42:58;;;;;;;;;;;8.90;99.90;;;;;;6214867;23;20340;-91
2023/03/25 01:45:29;;;;;;;;;;;8.20;99.90;;;;;;6188270;23;19931;-91
2023/03/25 01:47:59;;;;;;;;;;;8.30;99.90;;;;;;6188469;23;19911;-91
2023/03/25 01:50:27;;;;;;;;;;;8.30;99.90;;;;;;6187820;23;19904;-90
2023/03/25 01:52:55;;;;;;;;;;;9.50;99.90;;;;;;6187284;23;19934;-91
2023/03/25 01:55:22;;;;;;;;;;;9.50;99.90;;;;;;6214558;23;19900;-92
2023/03/25 01:57:49;;;;;;;;;;;8.40;99.90;;;;;;6188350;23;19986;-92
2023/03/25 02:00:17;;;;;;;;;;;8.40;99.90;;;;;;6187818;23;19907;-92
2023/03/25 02:02:44;;;;;;;;;;;8.20;99.90;;;;;;6187203;23;19915;-92
2023/03/25 02:05:16;;;;;;;;;;;8.00;99.90;;;;;;6186956;23;19899;-92
2023/03/25 02:07:45;;;;;;;;;;;8.10;99.90;;;;;;6187214;23;19903;-90
2023/03/25 02:10:11;;;;;;;;;;;8.10;99.90;;;;;;6214030;23;19900;-93
2023/03/25 02:12:37;;;;;;;;;;;8.10;99.90;;;;;;6188114;23;19922;-91
2023/03/25 02:15:04;;;;;;;;;;;8.60;99.90;;;;;;6188543;23;19900;-91
2023/03/25 02:17:42;;;;;;;;;;;8.10;99.90;;;;;;6189367;23;19975;-91
2023/03/25 02:20:34;;;;;;;;;;;8.10;99.90;;;;;;6187949;23;19991;-91
2023/03/25 02:23:15;;;;;;;;;;;8.10;99.90;;;;;;6215437;23;19958;-91
2023/03/25 02:25:59;;;;;;;;;;;8.10;99.90;;;;;;6213755;23;19904;-93
2023/03/25 02:28:37;;;;;;;;;;;8.10;99.90;;;;;;6188322;23;19904;-91
2023/03/25 02:31:05;;;;;;;;;;;8.20;99.90;;;;;;6188518;23;19900;-91
2023/03/25 02:33:36;;;;;;;;;;;8.20;99.90;;;;;;6188185;23;19900;-92
2023/03/25 02:36:20;;;;;;;;;;;8.80;99.90;;;;;;6188350;23;20217;-92
2023/03/25 02:38:45;;;;;;;;;;;8.10;99.90;;;;;;6188088;23;19931;-92
2023/03/25 02:41:29;;;;;;;;;;;9.20;99.90;;;;;;6188308;23;19907;-93
2023/03/25 02:43:55;;;;;;;;;;;8.10;99.90;;;;;;6188327;23;19911;-93
2023/03/25 02:46:22;;;;;;;;;;;8.20;99.90;;;;;;6187670;23;20241;-92
2023/03/25 02:48:52;;;;;;;;;;;8.20;99.90;;;;;;6188374;23;20333;-92
2023/03/25 02:51:22;;;;;;;;;;;8.00;99.90;;;;;;6188444;23;19979;-92
2023/03/25 02:53:49;;;;;;;;;;;10.20;99.90;;;;;;6196263;23;19931;-89
2023/03/25 02:56:16;;;;;;;;;;;9.30;99.90;;;;;;6213045;23;19904;-89
2023/03/25 02:58:43;;;;;;;;;;;8.70;99.90;;;;;;6236917;23;19908;-90
2023/03/25 03:01:09;;;;;;;;;;;8.80;99.90;;;;;;6213076;23;19911;-91
2023/03/25 03:03:35;;;;;;;;;;;8.30;99.90;;;;;;6192147;23;19908;-90
2023/03/25 03:06:03;;;;;;;;;;;8.10;99.90;;;;;;6190909;23;20316;-91
2023/03/25 03:08:35;;;;;;;;;;;8.00;99.90;;;;;;6188055;23;19899;-93
2023/03/25 03:11:10;;;;;;;;;;;8.10;99.90;;;;;;6188024;23;20305;-92
2023/03/25 03:13:38;;;;;;;;;;;8.10;99.90;;;;;;6187130;23;19900;-91
2023/03/25 03:16:23;;;;;;;;;;;8.10;99.90;;;;;;6186722;23;19911;-93
2023/03/25 03:19:15;;;;;;;;;;;7.90;99.90;;;;;;6188391;23;19900;-93
2023/03/25 03:21:50;;;;;;;;;;;8.10;99.90;;;;;;6215660;23;19915;-94
2023/03/25 03:24:30;;;;;;;;;;;8.10;99.90;;;;;;6189116;23;20357;-91
2023/03/25 03:26:58;;;;;;;;;;;8.30;99.90;;;;;;6188846;23;19907;-92
2023/03/25 03:29:38;;;;;;;;;;;8.50;99.90;;;;;;6189702;23;20194;-93
2023/03/25 03:32:12;;;;;;;;;;;8.40;99.90;;;;;;6189092;23;20006;-93
2023/03/25 03:34:55;;;;;;;;;;;8.50;99.90;;;;;;6189205;23;19900;-93
2023/03/25 03:37:25;;;;;;;;;;;8.40;99.90;;;;;;6215358;23;19948;-92
2023/03/25 03:39:52;;;;;;;;;;;8.30;99.90;;;;;;6189366;23;19932;-92
2023/03/25 03:42:18;;;;;;;;;;;8.50;99.90;;;;;;6189878;23;19907;-93
2023/03/25 03:44:48;;;;;;;;;;;9.00;99.90;;;;;;6189240;23;19908;-92
2023/03/25 03:47:17;;;;;;;;;;;8.50;99.90;;;;;;6188801;23;19900;-92
2023/03/25 03:49:45;;;;;;;;;;;8.70;99.90;;;;;;6189115;23;20309;-91
2023/03/25 03:52:13;;;;;;;;;;;8.90;99.90;;;;;;6188728;23;19975;-92
2023/03/25 03:54:50;;;;;;;;;;;8.20;99.90;;;;;;6188112;23;19900;-92
2023/03/25 03:57:21;;;;;;;;;;;8.20;99.90;;;;;;6188763;23;19915;-93
2023/03/25 04:00:11;;;;;;;;;;;8.20;99.90;;;;;;6188513;23;19904;-92
2023/03/25 04:02:55;;;;;;;;;;;8.20;99.90;;;;;;6169822;23;19904;-94
2023/03/25 04:05:22;;;;;;;;;;;8.70;99.90;;;;;;6190155;23;19919;-94
2023/03/25 04:07:55;;;;;;;;;;;8.20;99.90;;;;;;6189614;23;19900;-93
2023/03/25 04:10:33;;;;;;;;;;;8.20;99.90;;;;;;6164746;23;19928;-91
2023/03/25 04:13:01;;;;;;;;;;;8.20;99.90;;;;;;6190937;23;19904;-91
2023/03/25 04:15:26;;;;;;;;;;;8.10;99.90;;;;;;6215913;23;19946;-93
2023/03/25 04:17:52;;;;;;;;;;;8.10;99.90;;;;;;6188547;23;19900;-92
2023/03/25 04:20:24;;;;;;;;;;;8.10;99.90;;;;;;6188373;23;20403;-91
2023/03/25 04:22:51;;;;;;;;;;;8.10;99.90;;;;;;6214897;23;19908;-92
2023/03/25 04:25:17;;;;;;;;;;;8.40;99.90;;;;;;6187570;23;19907;-92
2023/03/25 04:27:47;;;;;;;;;;;8.10;99.90;;;;;;6214842;23;19904;-94
2023/03/25 04:30:13;;;;;;;;;;;8.00;99.90;;;;;;6185658;23;19900;-91
2023/03/25 04:32:39;;;;;;;;;;;8.10;99.90;;;;;;6183958;23;19900;-92
2023/03/25 04:35:05;;;;;;;;;;;8.90;99.90;;;;;;6184876;23;19957;-90
2023/03/25 04:37:32;;;;;;;;;;;8.30;99.90;;;;;;6210826;23;19907;-91
2023/03/25 04:40:00;;;;;;;;;;;8.40;99.90;;;;;;6185471;23;20031;-92
2023/03/25 04:42:31;;;;;;;;;;;8.10;99.90;;;;;;6210397;23;19908;-93
2023/03/25 04:44:57;;;;;;;;;;;8.90;99.90;;;;;;6185247;23;19979;-92
2023/03/25 04:47:24;;;;;;;;;;;8.10;99.90;;;;;;6185446;23;19939;-92
2023/03/25 04:49:51;;;;;;;;;;;8.20;99.90;;;;;;6184328;23;19906;-90
2023/03/25 04:52:17;;;;;;;;;;;8.10;99.90;;;;;;6212242;23;19900;-90
2023/03/25 04:54:45;;;;;;;;;;;8.10;99.90;;;;;;6211868;23;19906;-92
2023/03/25 04:57:11;;;;;;;;;;;8.10;99.90;;;;;;6184592;23;20435;-93
2023/03/25 04:59:37;;;;;;;;;;;8.20;99.90;;;;;;6184527;23;20335;-92
2023/03/25 05:02:04;;;;;;;;;;;8.50;99.90;;;;;;6184801;23;19900;-93
2023/03/25 05:04:30;;;;;;;;;;;8.20;99.90;;;;;;6183923;23;19907;-91
2023/03/25 05:06:56;;;;;;;;;;;8.20;99.90;;;;;;6214622;23;20100;-92
2023/03/25 05:09:21;;;;;;;;;;;8.20;99.90;;;;;;6187889;23;20394;-90
2023/03/25 05:11:48;;;;;;;;;;;8.10;99.90;;;;;;6214687;23;19923;-93
2023/03/25 05:14:15;;;;;;;;;;;9.20;99.90;;;;;;6215097;23;19900;-92
2023/03/25 05:16:40;;;;;;;;;;;8.10;99.90;;;;;;6188442;23;20245;-91
2023/03/25 05:19:07;;;;;;;;;;;8.10;99.90;;;;;;6189172;23;19900;-91
2023/03/25 05:21:36;;;;;;;;;;;8.00;99.90;;;;;;6189263;23;20334;-92
2023/03/25 05:24:07;;;;;;;;;;;8.00;99.90;;;;;;6214550;23;19915;-91
2023/03/25 05:26:33;;;;;;;;;;;8.00;99.90;;;;;;6189542;23;20317;-90
2023/03/25 05:29:01;;;;;;;;;;;8.10;99.90;;;;;;6188268;23;19949;-92
2023/03/25 05:31:27;;;;;;;;;;;8.10;99.90;;;;;;6187585;23;19900;-90
2023/03/25 05:33:53;;;;;;;;;;;8.80;99.90;;;;;;6213978;23;19935;-90
2023/03/25 05:36:19;;;;;;;;;;;8.10;99.90;;;;;;6188039;23;19900;-91
2023/03/25 05:38:45;;;;;;;;;;;10.00;99.90;;;;;;6187943;23;19961;-90
2023/03/25 05:41:15;;;;;;;;;;;8.10;99.90;;;;;;6214266;23;19900;-92
2023/03/25 05:43:46;;;;;;;;;;;8.10;99.90;;;;;;6188551;23;19915;-92
2023/03/25 05:46:12;;;;;;;;;;;9.10;99.90;;;;;;6216938;23;19892;-91
2023/03/25 05:48:40;;;;;;;;;;;8.40;99.90;;;;;;6231552;23;19900;-93
2023/03/25 05:51:12;;;;;;;;;;;8.10;99.90;;;;;;6231909;23;19907;-90
2023/03/25 05:53:38;;;;;;;;;;;8.10;99.90;;;;;;6206748;23;19911;-91
2023/03/25 05:56:04;;;;;;;;;;;8.00;99.90;;;;;;6188856;23;19979;-92
2023/03/25 05:58:31;;;;;;;;;;;8.00;99.90;;;;;;6186318;23;19934;-92
2023/03/25 06:00:58;;;;;;;;;;;8.10;99.90;;;;;;6184372;23;19907;-91
2023/03/25 06:03:24;;;;;;;;;;;8.80;99.90;;;;;;6182869;23;19908;-91
2023/03/25 06:05:51;;;;;;;;;;;8.00;99.90;;;;;;6184698;23;19906;-90
2023/03/25 06:08:18;;;;;;;;;;;8.30;99.90;;;;;;6185456;23;20236;-90
2023/03/25 06:10:44;;;;;;;;;;;8.10;99.90;;;;;;6183853;23;20270;-89
2023/03/25 06:13:20;;;;;;;;;;;8.10;99.90;;;;;;5104990;27;19924;-94
2023/03/25 06:15:46;;;;;;;;;;;8.00;99.90;;;;;;5110702;28;20427;-91
2023/03/25 06:18:12;;;;;;;;;;;8.00;99.90;;;;;;5107338;28;19918;-90
2023/03/25 06:20:38;;;;;;;;;;;8.20;99.90;;;;;;5088812;28;19909;-89
2023/03/25 06:23:03;;;;;;;;;;;8.20;99.90;;;;;;5090020;28;19908;-90
2023/03/25 06:25:30;;;;;;;;;;;8.20;99.90;;;;;;5089175;28;19912;-90
2023/03/25 06:27:57;;;;;;;;;;;8.40;99.90;;;;;;5094792;28;19975;-90
2023/03/25 06:30:23;;;;;;;;;;;8.10;99.90;;;;;;5089283;28;19912;-92
2023/03/25 06:32:49;;;;;;;;;;;8.80;99.90;;;;;;5119708;27;19928;-91
2023/03/25 06:35:18;;;;;;;;;;;8.10;99.90;;;;;;5092285;28;20374;-91
2023/03/25 06:37:45;;;;;;;;;;;8.30;99.90;;;;;;5098783;28;19912;-94
2023/03/25 06:40:12;;;;;;;;;;;8.30;99.90;;;;;;5089697;28;19998;-91
2023/03/25 06:42:37;;;;;;;;;;;8.50;99.90;;;;;;5089247;28;19917;-95
2023/03/25 06:45:03;;;;;;;;;;;8.70;99.90;;;;;;5119565;27;20021;-92
2023/03/25 06:47:29;;;;;;;;;;;8.40;99.90;;;;;;5086791;28;19916;-91
2023/03/25 06:49:55;;;;;;;;;;;8.70;99.90;;;;;;5089681;28;19912;-94
2023/03/25 06:52:20;;;;;;;;;;;9.00;99.90;;;;;;5096553;28;20019;-92
2023/03/25 06:54:46;;;;;;;;;;;8.60;99.90;;;;;;5095775;28;19912;-92
2023/03/25 06:57:12;;;;;;;;;;;9.30;99.90;;;;;;5125685;27;19916;-92
2023/03/25 06:59:37;;;;;;;;;;;8.40;99.90;;;;;;5107180;28;19912;-90
2023/03/25 07:02:03;;;;;;;;;;;8.60;99.90;;;;;;5103835;28;20363;-90
2023/03/25 07:04:28;;;;;;;;;;;8.40;99.90;;;;;;5106837;28;19922;-90
2023/03/25 07:06:54;;;;;;;;;;;9.10;99.90;;;;;;5106224;28;19908;-90
2023/03/25 07:09:20;;;;;;;;;;;9.00;99.90;;;;;;5105128;28;20280;-92
2023/03/25 07:11:45;;;;;;;;;;;8.80;99.90;;;;;;5095015;28;19920;-91
2023/03/25 07:14:11;;;;;;;;;;;8.80;99.90;;;;;;5114204;28;19942;-89
2023/03/25 07:16:36;;;;;;;;;;;8.90;99.90;;;;;;5117526;28;20356;-91
2023/03/25 07:19:02;;;;;;;;;;;9.40;99.90;;;;;;5107006;28;20739;-90
2023/03/25 07:21:27;;;;;;;;;;;9.60;99.90;;;;;;5106173;28;20006;-91
2023/03/25 07:23:53;;;;;;;;;;;9.30;99.90;;;;;;5095399;28;19912;-92
2023/03/25 07:26:19;;;;;;;;;;;9.10;99.90;;;;;;5093068;28;19962;-92
2023/03/25 07:28:46;;;;;;;;;;;9.00;99.90;;;;;;5092455;28;19908;-91
2023/03/25 07:31:13;;;;;;;;;;;9.20;99.90;;;;;;5080580;28;19917;-90
2023/03/25 07:33:38;;;;;;;;;;;9.20;99.90;;;;;;5118363;27;19928;-91
2023/03/25 07:36:05;;;;;;;;;;;9.30;99.90;;;;;;5082725;28;19912;-92
2023/03/25 07:38:31;;;;;;;;;;;9.30;99.90;;;;;;5083333;28;19912;-89
2023/03/25 07:40:56;;;;;;;;;;;9.40;99.90;;;;;;5089356;28;20011;-89
2023/03/25 07:43:22;;;;;;;;;;;9.40;99.90;;;;;;5089921;28;19908;-88
2023/03/25 07:45:47;;;;;;;;;;;9.40;99.90;;;;;;5091794;28;20426;-89
2023/03/25 07:48:15;;;;;;;;;;;9.80;99.90;;;;;;5091592;28;19908;-89
2023/03/25 07:50:41;;;;;;;;;;;9.60;99.90;;;;;;5090445;28;19958;-88
2023/03/25 07:53:06;;;;;;;;;;;9.50;99.90;;;;;;5091193;28;19924;-90
2023/03/25 07:55:32;;;;;;;;;;;9.40;99.90;;;;;;5092730;28;19969;-89
2023/03/25 07:58:00;;;;;;;;;;;9.60;99.90;;;;;;5092491;28;19920;-89
2023/03/25 08:00:26;;;;;;;;;;;10.30;99.90;;;;;;5093037;28;19920;-89
2023/03/25 08:02:52;;;;;;;;;;;9.70;99.90;;;;;;5093134;28;19912;-91
2023/03/25 08:05:20;;;;;;;;;;;9.70;99.90;;;;;;5091238;28;19915;-89
2023/03/25 08:07:49;;;;;;;;;;;9.70;99.90;;;;;;5117438;27;19908;-89
2023/03/25 08:10:16;;;;;;;;;;;9.80;99.90;;;;;;5085256;28;19913;-88
2023/03/25 08:12:42;;;;;;;;;;;9.80;99.90;;;;;;5071580;28;20295;-86
2023/03/25 08:15:08;;;;;;;;;;;9.80;99.90;;;;;;5071744;28;20478;-88
2023/03/25 08:17:33;;;;;;;;;;;9.90;99.90;;;;;;5074942;28;19926;-88
2023/03/25 08:19:59;;;;;;;;;;;9.90;99.90;;;;;;5092435;28;19964;-89
2023/03/25 08:22:26;;;;;;;;;;;9.90;99.90;;;;;;5091336;28;19952;-89
2023/03/25 08:24:51;;;;;;;;;;;10.10;99.90;;;;;;5082976;28;19912;-89
2023/03/25 08:27:17;;;;;;;;;;;9.20;99.90;;;;;;5091876;28;19915;-90
2023/03/25 08:29:43;;;;;;;;;;;10.00;99.90;;;;;;5091925;28;19912;-89
2023/03/25 08:32:09;;;;;;;;;;;10.00;99.90;;;;;;5124254;27;20345;-88
2023/03/25 08:34:38;;;;;;;;;;;10.00;99.90;;;;;;5090944;28;20460;-90
2023/03/25 08:37:06;;;;;;;;;;;10.10;99.90;;;;;;5091926;28;19908;-90
2023/03/25 08:39:38;;;;;;;;;;;10.10;99.90;;;;;;5092118;28;19976;-93
2023/03/25 08:42:04;;;;;;;;;;;10.20;99.90;;;;;;5097090;28;19971;-87
2023/03/25 08:44:29;;;;;;;;;;;10.20;99.90;;;;;;5107139;28;19916;-88
2023/03/25 08:46:55;;;;;;;;;;;10.30;99.90;;;;;;5106708;28;19983;-87
2023/03/25 08:49:21;;;;;;;;;;;10.20;99.90;;;;;;5098021;28;19919;-89
2023/03/25 08:51:47;;;;;;;;;;;10.20;99.90;;;;;;5097537;28;19920;-88
2023/03/25 08:54:12;;;;;;;;;;;10.30;99.90;;;;;;5109630;28;19908;-91
2023/03/25 08:56:38;;;;;;;;;;;10.20;99.90;;;;;;5075052;28;19912;-92
2023/03/25 08:59:03;;;;;;;;;;;10.30;99.90;;;;;;5088733;28;19919;-88
2023/03/25 09:01:29;;;;;;;;;;;10.40;99.90;;;;;;5091453;28;19912;-90
2023/03/25 09:03:56;;;;;;;;;;;10.50;99.90;;;;;;5092119;28;19912;-88
2023/03/25 09:06:22;;;;;;;;;;;10.50;99.90;;;;;;5088950;28;19931;-86
2023/03/25 09:08:47;;;;;;;;;;;10.50;99.90;;;;;;5089784;28;20376;-85
2023/03/25 09:11:14;;;;;;;;;;;10.60;99.90;;;;;;5090592;28;20014;-89
2023/03/25 09:13:40;;;;;;;;;;;10.80;99.90;;;;;;5074761;28;19927;-91
2023/03/25 09:16:06;;;;;;;;;;;10.60;99.90;;;;;;5087225;28;19912;-90
2023/03/25 09:18:31;;;;;;;;;;;10.80;99.90;;;;;;5083336;28;19935;-89
2023/03/25 09:20:58;;;;;;;;;;;10.90;99.90;;;;;;5077086;28;19912;-85
2023/03/25 09:23:23;;;;;;;;;;;10.90;99.90;;;;;;5090043;28;19916;-89
2023/03/25 09:25:49;;;;;;;;;;;11.00;99.90;;;;;;5066504;28;19924;-86
2023/03/25 09:28:15;;;;;;;;;;;11.00;99.90;;;;;;5051390;28;20361;-86
2023/03/25 09:30:40;;;;;;;;;;;11.10;99.90;;;;;;5050375;28;19951;-90
2023/03/25 09:33:06;;;;;;;;;;;11.20;99.90;;;;;;5050090;28;20338;-87
2023/03/25 09:35:31;;;;;;;;;;;11.30;99.90;;;;;;5062109;28;19912;-86
2023/03/25 09:37:57;;;;;;;;;;;11.20;99.90;;;;;;5077106;28;19912;-88
2023/03/25 09:40:23;;;;;;;;;;;11.40;99.90;;;;;;5075491;28;19913;-89
2023/03/25 09:43:07;;;;;;;;;;;11.40;99.90;;;;;;5070450;28;19987;-89
2023/03/25 09:45:43;;;;;;;;;;;11.50;99.90;;;;;;5051785;28;19909;-87
2023/03/25 09:48:18;;;;;;;;;;;11.40;99.90;;;;;;5061531;28;20107;-88
2023/03/25 09:50:44;;;;;;;;;;;11.50;99.90;;;;;;5049931;28;19908;-88
2023/03/25 09:53:12;;;;;;;;;;;11.50;99.90;;;;;;5059237;28;20221;-89
2023/03/25 09:55:40;;;;;;;;;;;11.60;99.90;;;;;;5067542;28;19943;-87
2023/03/25 09:58:15;;;;;;;;;;;11.70;99.90;;;;;;5051912;28;19950;-89
2023/03/25 10:00:41;;;;;;;;;;;11.80;99.90;;;;;;5066041;28;19916;-86
2023/03/25 10:03:10;;;;;;;;;;;11.80;99.90;;;;;;5055592;28;19917;-88
2023/03/25 10:05:47;;;;;;;;;;;11.70;99.90;;;;;;5040848;28;19915;-86
2023/03/25 10:08:19;;;;;;;;;;;11.70;99.90;;;;;;5069309;28;19955;-86
2023/03/25 10:10:44;;;;;;;;;;;11.70;99.90;;;;;;5038893;28;19909;-88
2023/03/25 10:13:29;;;;;;;;;;;11.80;99.90;;;;;;5068155;28;20152;-86
2023/03/25 10:16:00;;;;;;;;;;;11.90;99.90;;;;;;5073663;28;19913;-86
2023/03/25 10:18:32;;;;;;;;;;;11.90;99.90;;;;;;5101401;28;20376;-85
2023/03/25 10:21:01;;;;;;;;;;;11.90;99.90;;;;;;5087798;28;19919;-86
2023/03/25 10:23:26;;;;;;;;;;;12.00;99.90;;;;;;5088767;28;19912;-86
2023/03/25 10:25:56;;;;;;;;;;;12.00;99.90;;;;;;5086793;28;19942;-88
2023/03/25 10:28:27;;;;;;;;;;;12.00;99.90;;;;;;5092577;28;20431;-87
2023/03/25 10:30:53;;;;;;;;;;;12.00;99.90;;;;;;5098441;28;19916;-92
2023/03/25 10:33:37;;;;;;;;;;;12.00;99.90;;;;;;5081305;28;19920;-86
2023/03/25 10:36:05;;;;;;;;;;;12.10;99.90;;;;;;5080750;28;19970;-91
2023/03/25 10:38:32;;;;;;;;;;;12.10;99.90;;;;;;5086808;28;20360;-87
2023/03/25 10:41:10;;;;;;;;;;;12.20;99.90;;;;;;5091679;28;19912;-90
2023/03/25 10:43:40;;;;;;;;;;;12.10;99.90;;;;;;5084272;28;19912;-88
2023/03/25 10:46:06;;;;;;;;;;;12.20;99.90;;;;;;5088077;28;19912;-89
2023/03/25 10:48:31;;;;;;;;;;;12.20;99.90;;;;;;5088743;28;19935;-88
2023/03/25 10:51:02;;;;;;;;;;;12.30;99.90;;;;;;5088868;28;19955;-89
2023/03/25 10:53:28;;;;;;;;;;;12.30;99.90;;;;;;5088894;28;19920;-88
2023/03/25 10:55:55;;;;;;;;;;;12.30;99.90;;;;;;5088559;28;19913;-88
2023/03/25 10:58:21;;;;;;;;;;;12.50;99.90;;;;;;5090745;28;20424;-89
2023/03/25 11:00:46;;;;;;;;;;;12.60;99.90;;;;;;5092854;28;19913;-89
2023/03/25 11:03:19;;;;;;;;;;;12.50;99.90;;;;;;5092544;28;20279;-88
2023/03/25 11:05:46;;;;;;;;;;;12.50;99.90;;;;;;5090015;28;19930;-90
2023/03/25 11:08:13;;;;;;;;;;;12.60;99.90;;;;;;5092059;28;19912;-89
2023/03/25 11:10:38;;;;;;;;;;;12.70;99.90;;;;;;5090823;28;19999;-89
2023/03/25 11:13:10;;;;;;;;;;;12.60;99.90;;;;;;5090964;28;20008;-91
2023/03/25 11:15:37;;;;;;;;;;;12.50;99.90;;;;;;5093298;28;19908;-89
2023/03/25 11:18:19;;;;;;;;;;;12.50;99.90;;;;;;5092930;28;20356;-91
2023/03/25 11:20:47;;;;;;;;;;;12.50;99.90;;;;;;5093615;28;20015;-91
2023/03/25 11:23:15;;;;;;;;;;;12.60;99.90;;;;;;5094104;28;19908;-90
2023/03/25 11:25:42;;;;;;;;;;;12.70;99.90;;;;;;5091695;28;20453;-90
2023/03/25 11:28:15;;;;;;;;;;;12.90;99.90;;;;;;5092317;28;19912;-85
2023/03/25 11:31:00;;;;;;;;;;;12.80;99.90;;;;;;5092483;28;19955;-90
2023/03/25 11:33:26;;;;;;;;;;;12.80;99.90;;;;;;5082979;28;19959;-89
2023/03/25 11:35:51;;;;;;;;;;;12.80;99.90;;;;;;5092991;28;19951;-90
2023/03/25 11:38:21;;;;;;;;;;;12.80;99.90;;;;;;5092109;28;19962;-89
2023/03/25 11:40:52;;;;;;;;;;;12.80;99.90;;;;;;5092325;28;19909;-89
2023/03/25 11:43:19;;;;;;;;;;;12.90;99.90;;;;;;5092178;28;19912;-90
2023/03/25 11:45:45;;;;;;;;;;;12.80;99.90;;;;;;5092302;28;19919;-89
2023/03/25 11:48:14;;;;;;;;;;;12.80;99.90;;;;;;5092296;28;19908;-88
2023/03/25 11:50:45;;;;;;;;;;;12.90;99.90;;;;;;5090808;28;20382;-88
2023/03/25 11:53:14;;;;;;;;;;;13.00;99.90;;;;;;5090838;28;20049;-90
2023/03/25 11:55:44;;;;;;;;;;;13.00;99.90;;;;;;5090510;28;19916;-89
2023/03/25 11:58:21;;;;;;;;;;;13.10;99.90;;;;;;5091948;28;19912;-88
2023/03/25 12:00:47;;;;;;;;;;;13.20;99.90;;;;;;5092113;28;19969;-88
2023/03/25 12:03:13;;;;;;;;;;;13.30;99.90;;;;;;5091949;28;19915;-87
2023/03/25 12:05:39;;;;;;;;;;;13.30;99.90;;;;;;5090528;28;19999;-89
2023/03/25 12:08:14;;;;;;;;;;;13.30;99.90;;;;;;5090761;28;19912;-89
2023/03/25 12:10:48;;;;;;;;;;;13.20;99.90;;;;;;5088413;28;20348;-89
2023/03/25 12:13:20;;;;;;;;;;;13.30;99.90;;;;;;5071395;28;20001;-87
2023/03/25 12:15:53;;;;;;;;;;;13.30;99.90;;;;;;5070410;28;19914;-89
2023/03/25 12:18:19;;;;;;;;;;;13.40;99.90;;;;;;5071336;28;19999;-88
2023/03/25 12:20:55;;;;;;;;;;;13.40;99.90;;;;;;5071539;28;19951;-89
2023/03/25 12:23:39;;;;;;;;;;;13.40;99.90;;;;;;5071443;28;19923;-89
2023/03/25 12:26:10;;;;;;;;;;;14.60;99.90;;;;;;5086408;28;19912;-87
2023/03/25 12:28:50;;;;;;;;;;;13.40;99.90;;;;;;5090024;28;19909;-86
2023/03/25 12:31:28;;;;;;;;;;;13.50;99.90;;;;;;5091287;28;19908;-88
2023/03/25 12:33:53;;;;;;;;;;;13.60;99.90;;;;;;5092645;28;19918;-87
2023/03/25 12:36:19;;;;;;;;;;;13.70;99.90;;;;;;5091643;28;19908;-89
2023/03/25 12:38:45;;;;;;;;;;;13.60;99.90;;;;;;5091721;28;20287;-88
2023/03/25 12:41:16;;;;;;;;;;;13.50;99.90;;;;;;5089104;28;19912;-89
2023/03/25 12:43:51;;;;;;;;;;;13.40;99.90;;;;;;5091436;28;19908;-91
2023/03/25 12:46:39;;;;;;;;;;;13.30;99.90;;;;;;5090068;28;19908;-88
2023/03/25 12:49:23;;;;;;;;;;;13.00;99.90;;;;;;5089738;28;19929;-88
2023/03/25 12:52:07;;;;;;;;;;;12.60;99.90;;;;;;5089811;28;20082;-88
2023/03/25 12:54:33;;;;;;;;;;;12.50;99.90;;;;;;5089948;28;20367;-88
2023/03/25 12:57:12;;;;;;;;;;;12.70;99.90;;;;;;5090817;28;19964;-87
2023/03/25 12:59:40;;;;;;;;;;;13.00;99.90;;;;;;5089696;28;19913;-89
2023/03/25 13:02:14;;;;;;;;;;;13.40;99.90;;;;;;5089942;28;19919;-90
2023/03/25 13:04:47;;;;;;;;;;;13.50;99.90;;;;;;5091448;28;19919;-90
2023/03/25 13:07:18;;;;;;;;;;;15.50;99.90;;;;;;5090116;28;20388;-89
2023/03/25 13:09:53;;;;;;;;;;;13.70;99.90;;;;;;5089859;28;19908;-89
2023/03/25 13:12:30;;;;;;;;;;;13.80;99.90;;;;;;5089517;28;20010;-89
2023/03/25 13:15:03;;;;;;;;;;;13.80;99.90;;;;;;5090698;28;19908;-88
2023/03/25 13:17:32;;;;;;;;;;;13.80;99.90;;;;;;5090681;28;19908;-89
2023/03/25 13:19:59;;;;;;;;;;;14.10;99.90;;;;;;5089712;28;19912;-90
2023/03/25 13:22:30;;;;;;;;;;;14.20;99.90;;;;;;5089041;28;20303;-90
2023/03/25 13:24:58;;;;;;;;;;;14.20;99.90;;;;;;5071176;28;19919;-89
2023/03/25 13:27:24;;;;;;;;;;;14.10;99.90;;;;;;5084860;28;19962;-91
2023/03/25 13:29:52;;;;;;;;;;;14.30;99.90;;;;;;5091021;28;19912;-90
2023/03/25 13:32:22;;;;;;;;;;;14.50;99.90;;;;;;5089347;28;20002;-90
2023/03/25 13:34:53;;;;;;;;;;;14.70;99.90;;;;;;5089491;28;20436;-89
2023/03/25 13:37:24;;;;;;;;;;;14.70;99.90;;;;;;5089684;28;20283;-89
2023/03/25 13:39:56;;;;;;;;;;;14.60;99.90;;;;;;5088109;28;19999;-90
2023/03/25 13:42:26;;;;;;;;;;;14.40;99.90;;;;;;5090484;28;19912;-89
2023/03/25 13:44:55;;;;;;;;;;;14.50;99.90;;;;;;5089290;28;19912;-89
2023/03/25 13:47:21;;;;;;;;;;;14.50;99.90;;;;;;5089185;28;19912;-88
2023/03/25 13:49:50;;;;;;;;;;;14.50;99.90;;;;;;5090256;28;19909;-88
2023/03/25 13:52:16;;;;;;;;;;;14.60;99.90;;;;;;5090541;28;19916;-90
2023/03/25 13:54:51;;;;;;;;;;;14.50;99.90;;;;;;5090294;28;19999;-90
2023/03/25 13:57:17;;;;;;;;;;;14.40;99.90;;;;;;5088596;28;19974;-89
2023/03/25 14:00:01;;;;;;;;;;;14.40;99.90;;;;;;5072690;28;20372;-89
2023/03/25 14:02:51;;;;;;;;;;;14.50;99.90;;;;;;5102638;28;20277;-90
2023/03/25 14:05:34;;;;;;;;;;;14.60;99.90;;;;;;5070246;28;19955;-90
2023/03/25 14:08:00;;;;;;;;;;;14.70;99.90;;;;;;5070947;28;20480;-90
2023/03/25 14:10:45;;;;;;;;;;;14.70;99.90;;;;;;5069989;28;19909;-89
2023/03/25 14:13:14;;;;;;;;;;;14.70;99.90;;;;;;5072207;28;19971;-87
2023/03/25 14:15:43;;;;;;;;;;;14.70;99.90;;;;;;5090282;28;19999;-88
2023/03/25 14:18:14;;;;;;;;;;;14.80;99.90;;;;;;5090199;28;20348;-89
2023/03/25 14:20:40;;;;;;;;;;;14.90;99.90;;;;;;5088693;28;19908;-90
2023/03/25 14:23:08;;;;;;;;;;;15.00;99.90;;;;;;5088666;28;19912;-89
2023/03/25 14:25:38;;;;;;;;;;;14.90;99.90;;;;;;5089364;28;20363;-88
2023/03/25 14:28:06;;;;;;;;;;;15.10;99.90;;;;;;5087310;28;19919;-88
2023/03/25 14:30:32;;;;;;;;;;;15.00;99.90;;;;;;5089292;28;19908;-88
2023/03/25 14:33:01;;;;;;;;;;;14.90;99.90;;;;;;5088755;28;20007;-88